LFQBLFJL

Guest
Details From LFQB - Troyes Barberey
To LFJL - Metz-Nancy-Lorraine
Flight Number -
Tags generated
Created
Modified
Stats Distance 97 nm / 180 km
Max Altitude 11,300 ft / 3,444 m
Waypoints 3
Social Downloads 1
Likes 0
Share

Download

Looking for another format? Having issues loading an existing format? Contact us
Advertisement - Login to hide

Notes

Basic altitude profile: - Ascent Rate: 2500ft/min - Ascent Speed: 250kts - Cruise Altitude: 35000ft - Cruise Speed: 420kts - Descent Rate: 1500ft/min - Descent Speed: 250kts Options: - Use NATs: yes - Use PACOTS: yes - Use low airways: yes - Use high airways: yes

Route

LFQB SDI LFJL

ID Type Via Altitude (ft/m) Position (lat/lon) Dist (leg/tot) Name
O LFQB APT - 0 / 0 48.32088 / 4.01385 - / 0 nm Troyes Barberey
SDI VOR - 11,300 / 3,444 48.63700 / 4.88919 39 / 39 nm
O LFJL APT - 0 / 0 48.98065 / 6.24947 57 / 97 nm Metz-Nancy-Lorraine

Altitude Profile

Advertisement - Login to hide

LFQB

Details ICAO LFQB
Name Troyes Barberey
Region France
Timezone Europe/Paris (UTC+2.0)
Stats Elevation 388 ft / 118 m (AMSL)
Location 48.320900° 4.013850°
Runways 3
Magnetic Variation 1.684° E

METAR

LFQB 251700Z AUTO 27011KT CAVOK 20/08 Q1020

Decode

TAF

Not found

Departure Runways

ID Width Length Bearing (true/mag) Surface Threshold Overrun Markings Lighting
05 328 ft / 100 m 2,651 ft / 808 m 51.53° / 49.84° GRASS 426 ft / 130 m 0 ft / 0 m VISUAL
18 98 ft / 30 m 5,413 ft / 1,650 m 173.77° / 172.08° ASPHALT 0 ft / 0 m 0 ft / 0 m PREC-APP EDGE THRESHOLD MALS REIL-OMNI
18R 328 ft / 100 m 2,958 ft / 902 m 173.74° / 172.05° GRASS 0 ft / 0 m 0 ft / 0 m VISUAL
23 328 ft / 100 m 2,651 ft / 808 m 231.53° / 229.85° GRASS 0 ft / 0 m 0 ft / 0 m VISUAL
36 98 ft / 30 m 5,413 ft / 1,650 m 353.77° / 352.08° ASPHALT 377 ft / 115 m 0 ft / 0 m APP EDGE THRESHOLD REIL-OMNI
36L 328 ft / 100 m 2,958 ft / 902 m 353.74° / 352.05° GRASS 0 ft / 0 m 0 ft / 0 m VISUAL

LFJL

Details ICAO LFJL (ETZ)
Name Metz Nancy Lorraine
Region France
Timezone Europe/Paris (UTC+2.0)
Stats Elevation 870 ft / 265 m (AMSL)
Location 48.980200° 6.248930°
Runways 1
Magnetic Variation 2.291° E

METAR

LFJL 251700Z AUTO 26013KT CAVOK 19/08 Q1019 NOSIG

Decode

TAF

TAF LFJL 251100Z 2512/2612 24007KT 9999 SCT050 BECMG 2601/2604 BKN030

Decode

Destination Runways

ID Width Length Bearing (true/mag) Surface Threshold Overrun Markings Lighting
04 148 ft / 45 m 10,000 ft / 3,048 m 39.11° / 36.81° ASPHALT 666 ft / 203 m 0 ft / 0 m APP CENTERLINE EDGE THRESHOLD REIL-OMNI
22 148 ft / 45 m 10,000 ft / 3,048 m 219.13° / 216.83° ASPHALT 0 ft / 0 m 0 ft / 0 m PREC-APP CENTERLINE EDGE THRESHOLD ALSF-II TDZ REIL-OMNI

Approach Navaids

Runway Type Ident Frequency Range Bearing (true/mag) Slope Elevation
22 LOC-ILS MLY 111.75 MHz 18 nm / 33 km 219.20° / 216.91 ° - 870 ft / 265 m (AMSL)
22 GS MLY 111.75 MHz 10 nm / 19 km 219.28° / 216.99 ° 3.00° 870 ft / 265 m (AMSL)
22 DME MLY 111.75 MHz 18 nm / 33 km - - 919 ft / 280 m (AMSL)

Popular Alternatives